sensor_id;sensor_type;location;lat;lon;timestamp;P1;durP1;ratioP1;P2;durP2;ratioP2
14100;SDS011;7127;49.372;8.166;2023-03-24T00:00:19;0.83;;;0.83;;
14100;SDS011;7127;49.372;8.166;2023-03-24T00:02:48;1.10;;;1.00;;
14100;SDS011;7127;49.372;8.166;2023-03-24T00:05:16;1.83;;;1.10;;
14100;SDS011;7127;49.372;8.166;2023-03-24T00:07:44;1.60;;;1.40;;
14100;SDS011;7127;49.372;8.166;2023-03-24T00:10:13;1.47;;;1.37;;
14100;SDS011;7127;49.372;8.166;2023-03-24T00:12:42;1.40;;;1.30;;
14100;SDS011;7127;49.372;8.166;2023-03-24T00:15:10;1.30;;;1.20;;
14100;SDS011;7127;49.372;8.166;2023-03-24T00:17:40;1.67;;;1.40;;
14100;SDS011;7127;49.372;8.166;2023-03-24T00:20:08;1.17;;;1.07;;
14100;SDS011;7127;49.372;8.166;2023-03-24T00:22:39;1.30;;;1.20;;
14100;SDS011;7127;49.372;8.166;2023-03-24T00:25:12;1.47;;;1.37;;
14100;SDS011;7127;49.372;8.166;2023-03-24T00:27:40;2.93;;;1.40;;
14100;SDS011;7127;49.372;8.166;2023-03-24T00:30:09;1.70;;;1.30;;
14100;SDS011;7127;49.372;8.166;2023-03-24T00:32:39;1.30;;;1.20;;
14100;SDS011;7127;49.372;8.166;2023-03-24T00:35:07;1.10;;;1.10;;
14100;SDS011;7127;49.372;8.166;2023-03-24T00:37:37;1.50;;;1.40;;
14100;SDS011;7127;49.372;8.166;2023-03-24T00:40:04;1.17;;;1.07;;
14100;SDS011;7127;49.372;8.166;2023-03-24T00:42:36;1.13;;;1.03;;
14100;SDS011;7127;49.372;8.166;2023-03-24T00:45:05;1.33;;;1.23;;
14100;SDS011;7127;49.372;8.166;2023-03-24T00:47:34;1.20;;;1.10;;
14100;SDS011;7127;49.372;8.166;2023-03-24T00:50:10;2.60;;;1.30;;
14100;SDS011;7127;49.372;8.166;2023-03-24T00:52:39;1.30;;;1.20;;
14100;SDS011;7127;49.372;8.166;2023-03-24T00:55:08;1.30;;;1.20;;
14100;SDS011;7127;49.372;8.166;2023-03-24T00:57:38;3.20;;;2.93;;
14100;SDS011;7127;49.372;8.166;2023-03-24T01:00:07;2.80;;;2.50;;
14100;SDS011;7127;49.372;8.166;2023-03-24T01:02:43;2.00;;;1.80;;
14100;SDS011;7127;49.372;8.166;2023-03-24T01:05:12;1.80;;;1.63;;
14100;SDS011;7127;49.372;8.166;2023-03-24T01:07:41;1.47;;;1.37;;
14100;SDS011;7127;49.372;8.166;2023-03-24T01:10:11;1.50;;;1.40;;
14100;SDS011;7127;49.372;8.166;2023-03-24T01:12:39;1.90;;;1.50;;
14100;SDS011;7127;49.372;8.166;2023-03-24T01:15:07;1.70;;;1.60;;
14100;SDS011;7127;49.372;8.166;2023-03-24T01:17:38;2.10;;;1.90;;
14100;SDS011;7127;49.372;8.166;2023-03-24T01:20:06;2.10;;;1.90;;
14100;SDS011;7127;49.372;8.166;2023-03-24T01:22:37;1.93;;;1.77;;
14100;SDS011;7127;49.372;8.166;2023-03-24T01:25:10;1.70;;;1.60;;
14100;SDS011;7127;49.372;8.166;2023-03-24T01:27:40;1.83;;;1.60;;
14100;SDS011;7127;49.372;8.166;2023-03-24T01:30:07;2.60;;;1.37;;
14100;SDS011;7127;49.372;8.166;2023-03-24T01:32:38;1.57;;;1.40;;
14100;SDS011;7127;49.372;8.166;2023-03-24T01:35:05;1.50;;;1.40;;
14100;SDS011;7127;49.372;8.166;2023-03-24T01:37:32;1.53;;;1.43;;
14100;SDS011;7127;49.372;8.166;2023-03-24T01:40:01;1.63;;;1.53;;
14100;SDS011;7127;49.372;8.166;2023-03-24T01:42:31;1.30;;;1.20;;
14100;SDS011;7127;49.372;8.166;2023-03-24T01:44:59;1.50;;;1.40;;
14100;SDS011;7127;49.372;8.166;2023-03-24T01:47:27;1.60;;;1.50;;
14100;SDS011;7127;49.372;8.166;2023-03-24T01:49:55;2.10;;;1.83;;
14100;SDS011;7127;49.372;8.166;2023-03-24T01:52:26;1.70;;;1.47;;
14100;SDS011;7127;49.372;8.166;2023-03-24T01:54:56;1.80;;;1.70;;
14100;SDS011;7127;49.372;8.166;2023-03-24T01:57:27;2.00;;;1.70;;
14100;SDS011;7127;49.372;8.166;2023-03-24T01:59:58;1.50;;;1.40;;
14100;SDS011;7127;49.372;8.166;2023-03-24T02:02:29;1.43;;;1.33;;
14100;SDS011;7127;49.372;8.166;2023-03-24T02:05:00;1.40;;;1.30;;
14100;SDS011;7127;49.372;8.166;2023-03-24T02:07:31;1.33;;;1.23;;
14100;SDS011;7127;49.372;8.166;2023-03-24T02:10:01;1.83;;;1.40;;
14100;SDS011;7127;49.372;8.166;2023-03-24T02:12:32;1.57;;;1.47;;
14100;SDS011;7127;49.372;8.166;2023-03-24T02:14:59;1.40;;;1.30;;
14100;SDS011;7127;49.372;8.166;2023-03-24T02:17:32;1.53;;;1.43;;
14100;SDS011;7127;49.372;8.166;2023-03-24T02:23:14;1.40;;;1.20;;
14100;SDS011;7127;49.372;8.166;2023-03-24T02:42:03;1.57;;;1.47;;
14100;SDS011;7127;49.372;8.166;2023-03-24T02:44:38;1.87;;;1.63;;
14100;SDS011;7127;49.372;8.166;2023-03-24T02:47:14;2.00;;;1.63;;
14100;SDS011;7127;49.372;8.166;2023-03-24T02:49:46;2.00;;;1.80;;
14100;SDS011;7127;49.372;8.166;2023-03-24T02:52:20;2.33;;;1.70;;
14100;SDS011;7127;49.372;8.166;2023-03-24T02:54:55;2.07;;;1.50;;
14100;SDS011;7127;49.372;8.166;2023-03-24T02:57:28;1.63;;;1.30;;
14100;SDS011;7127;49.372;8.166;2023-03-24T02:59:59;1.93;;;1.50;;
14100;SDS011;7127;49.372;8.166;2023-03-24T03:02:33;2.17;;;1.67;;
14100;SDS011;7127;49.372;8.166;2023-03-24T03:05:05;1.63;;;1.53;;
14100;SDS011;7127;49.372;8.166;2023-03-24T03:07:38;2.00;;;1.40;;
14100;SDS011;7127;49.372;8.166;2023-03-24T03:10:07;3.90;;;1.77;;
14100;SDS011;7127;49.372;8.166;2023-03-24T03:12:42;1.70;;;1.60;;
14100;SDS011;7127;49.372;8.166;2023-03-24T03:15:14;2.97;;;1.50;;
14100;SDS011;7127;49.372;8.166;2023-03-24T03:17:45;1.90;;;1.70;;
14100;SDS011;7127;49.372;8.166;2023-03-24T03:20:18;1.50;;;1.40;;
14100;SDS011;7127;49.372;8.166;2023-03-24T03:22:49;1.40;;;1.30;;
14100;SDS011;7127;49.372;8.166;2023-03-24T03:25:19;1.43;;;1.20;;
14100;SDS011;7127;49.372;8.166;2023-03-24T03:27:51;1.87;;;1.50;;
14100;SDS011;7127;49.372;8.166;2023-03-24T03:30:21;2.20;;;1.57;;
14100;SDS011;7127;49.372;8.166;2023-03-24T03:32:52;3.23;;;1.40;;
14100;SDS011;7127;49.372;8.166;2023-03-24T03:35:23;1.63;;;1.20;;
14100;SDS011;7127;49.372;8.166;2023-03-24T03:37:56;1.77;;;1.57;;
14100;SDS011;7127;49.372;8.166;2023-03-24T03:40:29;2.47;;;1.60;;
14100;SDS011;7127;49.372;8.166;2023-03-24T03:43:01;1.50;;;1.40;;
14100;SDS011;7127;49.372;8.166;2023-03-24T03:45:29;2.07;;;1.80;;
14100;SDS011;7127;49.372;8.166;2023-03-24T03:47:58;1.73;;;1.30;;
14100;SDS011;7127;49.372;8.166;2023-03-24T03:50:25;1.40;;;1.30;;
14100;SDS011;7127;49.372;8.166;2023-03-24T03:52:52;1.53;;;1.33;;
14100;SDS011;7127;49.372;8.166;2023-03-24T03:55:19;1.60;;;1.50;;
14100;SDS011;7127;49.372;8.166;2023-03-24T03:57:46;1.60;;;1.50;;
14100;SDS011;7127;49.372;8.166;2023-03-24T04:00:16;2.00;;;1.80;;
14100;SDS011;7127;49.372;8.166;2023-03-24T04:02:48;1.70;;;1.60;;
14100;SDS011;7127;49.372;8.166;2023-03-24T04:05:31;1.83;;;1.60;;
14100;SDS011;7127;49.372;8.166;2023-03-24T04:08:08;1.80;;;1.70;;
14100;SDS011;7127;49.372;8.166;2023-03-24T04:10:54;1.70;;;1.60;;
14100;SDS011;7127;49.372;8.166;2023-03-24T04:13:47;1.80;;;1.70;;
14100;SDS011;7127;49.372;8.166;2023-03-24T04:16:21;2.00;;;1.80;;
14100;SDS011;7127;49.372;8.166;2023-03-24T04:19:01;1.60;;;1.50;;
14100;SDS011;7127;49.372;8.166;2023-03-24T04:21:44;1.80;;;1.70;;
14100;SDS011;7127;49.372;8.166;2023-03-24T04:24:21;2.87;;;2.00;;
14100;SDS011;7127;49.372;8.166;2023-03-24T04:27:00;1.70;;;1.60;;
14100;SDS011;7127;49.372;8.166;2023-03-24T04:29:37;1.80;;;1.50;;
14100;SDS011;7127;49.372;8.166;2023-03-24T04:32:12;1.60;;;1.50;;
14100;SDS011;7127;49.372;8.166;2023-03-24T04:34:47;1.50;;;1.40;;
14100;SDS011;7127;49.372;8.166;2023-03-24T04:37:19;1.70;;;1.57;;
14100;SDS011;7127;49.372;8.166;2023-03-24T04:39:48;1.47;;;1.37;;
14100;SDS011;7127;49.372;8.166;2023-03-24T04:42:19;1.57;;;1.30;;
14100;SDS011;7127;49.372;8.166;2023-03-24T04:44:49;1.93;;;1.40;;
14100;SDS011;7127;49.372;8.166;2023-03-24T04:47:19;1.40;;;1.30;;
14100;SDS011;7127;49.372;8.166;2023-03-24T04:49:50;1.47;;;1.37;;
14100;SDS011;7127;49.372;8.166;2023-03-24T04:52:17;1.40;;;1.30;;
14100;SDS011;7127;49.372;8.166;2023-03-24T04:54:44;1.40;;;1.30;;
14100;SDS011;7127;49.372;8.166;2023-03-24T04:57:10;1.40;;;1.30;;
14100;SDS011;7127;49.372;8.166;2023-03-24T04:59:37;1.10;;;1.00;;
14100;SDS011;7127;49.372;8.166;2023-03-24T05:02:04;1.40;;;1.30;;
14100;SDS011;7127;49.372;8.166;2023-03-24T05:04:32;0.83;;;0.83;;
14100;SDS011;7127;49.372;8.166;2023-03-24T05:07:01;0.90;;;0.90;;
14100;SDS011;7127;49.372;8.166;2023-03-24T05:09:28;1.40;;;1.30;;
14100;SDS011;7127;49.372;8.166;2023-03-24T05:11:56;1.60;;;1.20;;
14100;SDS011;7127;49.372;8.166;2023-03-24T05:14:23;1.00;;;1.00;;
14100;SDS011;7127;49.372;8.166;2023-03-24T05:16:50;1.07;;;0.97;;
14100;SDS011;7127;49.372;8.166;2023-03-24T05:19:17;0.93;;;0.93;;
14100;SDS011;7127;49.372;8.166;2023-03-24T05:21:45;0.90;;;0.90;;
14100;SDS011;7127;49.372;8.166;2023-03-24T05:24:13;0.80;;;0.80;;
14100;SDS011;7127;49.372;8.166;2023-03-24T05:26:40;1.20;;;1.10;;
14100;SDS011;7127;49.372;8.166;2023-03-24T05:29:06;1.00;;;1.00;;
14100;SDS011;7127;49.372;8.166;2023-03-24T05:31:33;0.80;;;0.80;;
14100;SDS011;7127;49.372;8.166;2023-03-24T05:34:00;1.23;;;1.10;;
14100;SDS011;7127;49.372;8.166;2023-03-24T05:36:27;0.80;;;0.80;;
14100;SDS011;7127;49.372;8.166;2023-03-24T05:38:56;1.10;;;1.00;;
14100;SDS011;7127;49.372;8.166;2023-03-24T05:41:22;1.80;;;0.97;;
14100;SDS011;7127;49.372;8.166;2023-03-24T05:43:49;1.30;;;0.90;;
14100;SDS011;7127;49.372;8.166;2023-03-24T05:46:16;0.80;;;0.80;;
14100;SDS011;7127;49.372;8.166;2023-03-24T05:48:43;0.80;;;0.80;;
14100;SDS011;7127;49.372;8.166;2023-03-24T05:51:10;0.90;;;0.90;;
14100;SDS011;7127;49.372;8.166;2023-03-24T05:53:37;1.00;;;0.90;;
14100;SDS011;7127;49.372;8.166;2023-03-24T05:56:06;0.80;;;0.80;;
14100;SDS011;7127;49.372;8.166;2023-03-24T05:58:36;0.93;;;0.93;;
14100;SDS011;7127;49.372;8.166;2023-03-24T06:01:05;1.10;;;1.00;;
14100;SDS011;7127;49.372;8.166;2023-03-24T06:03:34;1.73;;;0.73;;
14100;SDS011;7127;49.372;8.166;2023-03-24T06:06:03;0.90;;;0.90;;
14100;SDS011;7127;49.372;8.166;2023-03-24T06:08:30;0.80;;;0.80;;
14100;SDS011;7127;49.372;8.166;2023-03-24T06:10:58;1.03;;;0.97;;
14100;SDS011;7127;49.372;8.166;2023-03-24T06:13:27;1.10;;;1.00;;
14100;SDS011;7127;49.372;8.166;2023-03-24T06:15:55;0.80;;;0.80;;
14100;SDS011;7127;49.372;8.166;2023-03-24T06:18:22;1.00;;;0.93;;
14100;SDS011;7127;49.372;8.166;2023-03-24T06:20:50;1.17;;;1.00;;
14100;SDS011;7127;49.372;8.166;2023-03-24T06:23:20;1.33;;;1.00;;
14100;SDS011;7127;49.372;8.166;2023-03-24T06:25:50;0.70;;;0.70;;
14100;SDS011;7127;49.372;8.166;2023-03-24T06:28:17;0.80;;;0.70;;
14100;SDS011;7127;49.372;8.166;2023-03-24T06:30:46;1.00;;;1.00;;
14100;SDS011;7127;49.372;8.166;2023-03-24T06:33:13;0.90;;;0.90;;
14100;SDS011;7127;49.372;8.166;2023-03-24T06:35:40;0.90;;;0.90;;
14100;SDS011;7127;49.372;8.166;2023-03-24T06:38:07;1.20;;;1.10;;
14100;SDS011;7127;49.372;8.166;2023-03-24T06:40:35;1.27;;;0.90;;
14100;SDS011;7127;49.372;8.166;2023-03-24T06:43:02;0.77;;;0.77;;
14100;SDS011;7127;49.372;8.166;2023-03-24T06:45:29;0.77;;;0.77;;
14100;SDS011;7127;49.372;8.166;2023-03-24T06:47:59;0.80;;;0.80;;
14100;SDS011;7127;49.372;8.166;2023-03-24T06:50:26;1.03;;;0.83;;
14100;SDS011;7127;49.372;8.166;2023-03-24T06:52:57;1.10;;;1.00;;
14100;SDS011;7127;49.372;8.166;2023-03-24T06:55:24;2.70;;;1.20;;
14100;SDS011;7127;49.372;8.166;2023-03-24T06:57:51;0.80;;;0.80;;
14100;SDS011;7127;49.372;8.166;2023-03-24T07:00:18;0.77;;;0.77;;
14100;SDS011;7127;49.372;8.166;2023-03-24T07:02:45;1.07;;;0.97;;
14100;SDS011;7127;49.372;8.166;2023-03-24T07:29:29;1.00;;;1.00;;
14100;SDS011;7127;49.372;8.166;2023-03-24T07:32:02;1.23;;;1.00;;
14100;SDS011;7127;49.372;8.166;2023-03-24T07:34:29;1.37;;;1.07;;
14100;SDS011;7127;49.372;8.166;2023-03-24T07:37:13;1.00;;;0.90;;
14100;SDS011;7127;49.372;8.166;2023-03-24T07:39:43;0.83;;;0.83;;
14100;SDS011;7127;49.372;8.166;2023-03-24T07:42:13;0.90;;;0.90;;
14100;SDS011;7127;49.372;8.166;2023-03-24T07:44:49;1.03;;;0.93;;
14100;SDS011;7127;49.372;8.166;2023-03-24T07:47:21;1.83;;;1.10;;
14100;SDS011;7127;49.372;8.166;2023-03-24T07:49:50;1.10;;;1.00;;
14100;SDS011;7127;49.372;8.166;2023-03-24T07:52:19;0.90;;;0.90;;
14100;SDS011;7127;49.372;8.166;2023-03-24T07:58:24;0.90;;;0.90;;
14100;SDS011;7127;49.372;8.166;2023-03-24T08:05:28;0.70;;;0.70;;
14100;SDS011;7127;49.372;8.166;2023-03-24T08:42:15;0.97;;;0.90;;
14100;SDS011;7127;49.372;8.166;2023-03-24T08:44:42;1.93;;;0.90;;
14100;SDS011;7127;49.372;8.166;2023-03-24T08:47:10;0.80;;;0.80;;
14100;SDS011;7127;49.372;8.166;2023-03-24T08:49:38;0.60;;;0.60;;
14100;SDS011;7127;49.372;8.166;2023-03-24T08:52:05;0.73;;;0.73;;
14100;SDS011;7127;49.372;8.166;2023-03-24T09:20:16;0.50;;;0.50;;
14100;SDS011;7127;49.372;8.166;2023-03-24T09:22:44;0.67;;;0.67;;
14100;SDS011;7127;49.372;8.166;2023-03-24T09:30:36;0.50;;;0.50;;
14100;SDS011;7127;49.372;8.166;2023-03-24T09:33:12;0.57;;;0.57;;
14100;SDS011;7127;49.372;8.166;2023-03-24T09:35:39;0.70;;;0.70;;
14100;SDS011;7127;49.372;8.166;2023-03-24T09:38:07;0.77;;;0.70;;
14100;SDS011;7127;49.372;8.166;2023-03-24T09:40:37;0.60;;;0.60;;
14100;SDS011;7127;49.372;8.166;2023-03-24T09:43:06;0.83;;;0.80;;
14100;SDS011;7127;49.372;8.166;2023-03-24T09:45:43;0.60;;;0.60;;
14100;SDS011;7127;49.372;8.166;2023-03-24T09:48:17;0.70;;;0.70;;
14100;SDS011;7127;49.372;8.166;2023-03-24T09:50:48;0.80;;;0.80;;
14100;SDS011;7127;49.372;8.166;2023-03-24T09:53:22;0.50;;;0.50;;
14100;SDS011;7127;49.372;8.166;2023-03-24T09:55:55;0.50;;;0.50;;
14100;SDS011;7127;49.372;8.166;2023-03-24T09:58:27;0.63;;;0.63;;
14100;SDS011;7127;49.372;8.166;2023-03-24T10:00:57;0.53;;;0.53;;
14100;SDS011;7127;49.372;8.166;2023-03-24T10:03:26;0.60;;;0.60;;
14100;SDS011;7127;49.372;8.166;2023-03-24T10:05:55;1.17;;;0.80;;
14100;SDS011;7127;49.372;8.166;2023-03-24T10:08:27;1.63;;;0.90;;
14100;SDS011;7127;49.372;8.166;2023-03-24T10:11:01;0.93;;;0.60;;
14100;SDS011;7127;49.372;8.166;2023-03-24T10:13:32;1.00;;;0.60;;
14100;SDS011;7127;49.372;8.166;2023-03-24T10:16:06;0.57;;;0.57;;
14100;SDS011;7127;49.372;8.166;2023-03-24T10:18:44;0.50;;;0.50;;
14100;SDS011;7127;49.372;8.166;2023-03-24T10:21:16;0.57;;;0.53;;
14100;SDS011;7127;49.372;8.166;2023-03-24T10:23:47;0.40;;;0.40;;
14100;SDS011;7127;49.372;8.166;2023-03-24T10:26:25;0.37;;;0.30;;
14100;SDS011;7127;49.372;8.166;2023-03-24T10:29:02;0.50;;;0.50;;
14100;SDS011;7127;49.372;8.166;2023-03-24T10:31:37;0.60;;;0.60;;
14100;SDS011;7127;49.372;8.166;2023-03-24T10:34:09;0.60;;;0.60;;
14100;SDS011;7127;49.372;8.166;2023-03-24T10:36:37;0.40;;;0.40;;
14100;SDS011;7127;49.372;8.166;2023-03-24T10:39:04;0.97;;;0.47;;
14100;SDS011;7127;49.372;8.166;2023-03-24T10:41:31;0.50;;;0.50;;
14100;SDS011;7127;49.372;8.166;2023-03-24T10:44:00;0.83;;;0.83;;
14100;SDS011;7127;49.372;8.166;2023-03-24T10:46:28;0.50;;;0.50;;
14100;SDS011;7127;49.372;8.166;2023-03-24T10:49:07;0.50;;;0.50;;
14100;SDS011;7127;49.372;8.166;2023-03-24T10:51:43;0.40;;;0.40;;
14100;SDS011;7127;49.372;8.166;2023-03-24T10:54:14;0.30;;;0.30;;
14100;SDS011;7127;49.372;8.166;2023-03-24T10:56:44;0.63;;;0.40;;
14100;SDS011;7127;49.372;8.166;2023-03-24T10:59:20;0.40;;;0.40;;
14100;SDS011;7127;49.372;8.166;2023-03-24T11:01:54;0.30;;;0.30;;
14100;SDS011;7127;49.372;8.166;2023-03-24T11:04:25;0.60;;;0.60;;
14100;SDS011;7127;49.372;8.166;2023-03-24T11:06:56;0.50;;;0.50;;
14100;SDS011;7127;49.372;8.166;2023-03-24T11:09:37;1.70;;;1.60;;
14100;SDS011;7127;49.372;8.166;2023-03-24T11:12:10;1.23;;;1.13;;
14100;SDS011;7127;49.372;8.166;2023-03-24T11:14:47;0.63;;;0.63;;
14100;SDS011;7127;49.372;8.166;2023-03-24T11:17:14;0.53;;;0.53;;
14100;SDS011;7127;49.372;8.166;2023-03-24T11:19:50;1.13;;;0.83;;
14100;SDS011;7127;49.372;8.166;2023-03-24T11:22:18;0.80;;;0.40;;
14100;SDS011;7127;49.372;8.166;2023-03-24T11:24:46;0.77;;;0.50;;
14100;SDS011;7127;49.372;8.166;2023-03-24T11:27:16;0.50;;;0.50;;
14100;SDS011;7127;49.372;8.166;2023-03-24T11:29:44;0.60;;;0.60;;
14100;SDS011;7127;49.372;8.166;2023-03-24T11:32:17;0.50;;;0.50;;
14100;SDS011;7127;49.372;8.166;2023-03-24T11:34:49;0.43;;;0.40;;
14100;SDS011;7127;49.372;8.166;2023-03-24T11:37:26;1.00;;;0.60;;
14100;SDS011;7127;49.372;8.166;2023-03-24T11:40:04;0.40;;;0.40;;
14100;SDS011;7127;49.372;8.166;2023-03-24T11:42:42;0.20;;;0.20;;
14100;SDS011;7127;49.372;8.166;2023-03-24T11:45:18;0.30;;;0.30;;
14100;SDS011;7127;49.372;8.166;2023-03-24T11:47:49;0.60;;;0.30;;
14100;SDS011;7127;49.372;8.166;2023-03-24T11:50:20;0.70;;;0.47;;
14100;SDS011;7127;49.372;8.166;2023-03-24T11:52:51;0.30;;;0.30;;
14100;SDS011;7127;49.372;8.166;2023-03-24T11:55:23;0.40;;;0.40;;
14100;SDS011;7127;49.372;8.166;2023-03-24T11:58:10;0.30;;;0.30;;
14100;SDS011;7127;49.372;8.166;2023-03-24T12:00:44;1.20;;;0.50;;
14100;SDS011;7127;49.372;8.166;2023-03-24T12:06:18;0.80;;;0.50;;
14100;SDS011;7127;49.372;8.166;2023-03-24T12:08:57;0.60;;;0.50;;
14100;SDS011;7127;49.372;8.166;2023-03-24T12:11:35;0.60;;;0.53;;
14100;SDS011;7127;49.372;8.166;2023-03-24T12:14:16;0.93;;;0.37;;
14100;SDS011;7127;49.372;8.166;2023-03-24T12:16:52;2.13;;;1.67;;
14100;SDS011;7127;49.372;8.166;2023-03-24T12:19:41;1.30;;;1.13;;
14100;SDS011;7127;49.372;8.166;2023-03-24T12:22:34;1.43;;;1.03;;
14100;SDS011;7127;49.372;8.166;2023-03-24T12:25:20;1.50;;;0.60;;
14100;SDS011;7127;49.372;8.166;2023-03-24T12:28:09;1.00;;;0.60;;
14100;SDS011;7127;49.372;8.166;2023-03-24T12:30:53;1.13;;;0.70;;
14100;SDS011;7127;49.372;8.166;2023-03-24T12:33:35;0.60;;;0.50;;
14100;SDS011;7127;49.372;8.166;2023-03-24T12:36:16;1.90;;;0.60;;
14100;SDS011;7127;49.372;8.166;2023-03-24T12:39:00;0.80;;;0.60;;
14100;SDS011;7127;49.372;8.166;2023-03-24T12:44:46;0.97;;;0.90;;
14100;SDS011;7127;49.372;8.166;2023-03-24T12:47:43;0.93;;;0.70;;
14100;SDS011;7127;49.372;8.166;2023-03-24T12:50:23;1.23;;;0.60;;
14100;SDS011;7127;49.372;8.166;2023-03-24T12:53:03;1.40;;;0.80;;
14100;SDS011;7127;49.372;8.166;2023-03-24T12:55:39;1.67;;;0.80;;
14100;SDS011;7127;49.372;8.166;2023-03-24T12:58:10;1.63;;;1.17;;
14100;SDS011;7127;49.372;8.166;2023-03-24T13:00:43;1.13;;;0.80;;
14100;SDS011;7127;49.372;8.166;2023-03-24T13:03:17;2.00;;;1.03;;
14100;SDS011;7127;49.372;8.166;2023-03-24T13:05:48;1.97;;;0.90;;
14100;SDS011;7127;49.372;8.166;2023-03-24T13:08:20;2.47;;;1.00;;
14100;SDS011;7127;49.372;8.166;2023-03-24T13:10:55;1.33;;;0.83;;
14100;SDS011;7127;49.372;8.166;2023-03-24T13:13:27;0.87;;;0.70;;
14100;SDS011;7127;49.372;8.166;2023-03-24T13:15:57;1.00;;;0.60;;
14100;SDS011;7127;49.372;8.166;2023-03-24T13:18:28;1.40;;;0.73;;
14100;SDS011;7127;49.372;8.166;2023-03-24T13:20:59;1.00;;;0.77;;
14100;SDS011;7127;49.372;8.166;2023-03-24T13:23:35;1.57;;;0.70;;
14100;SDS011;7127;49.372;8.166;2023-03-24T13:26:22;1.03;;;0.70;;
14100;SDS011;7127;49.372;8.166;2023-03-24T13:29:03;0.73;;;0.50;;
14100;SDS011;7127;49.372;8.166;2023-03-24T13:31:39;2.00;;;0.90;;
14100;SDS011;7127;49.372;8.166;2023-03-24T13:34:13;1.63;;;1.20;;
14100;SDS011;7127;49.372;8.166;2023-03-24T13:36:50;2.00;;;1.17;;
14100;SDS011;7127;49.372;8.166;2023-03-24T13:39:21;1.93;;;0.93;;
14100;SDS011;7127;49.372;8.166;2023-03-24T13:41:52;1.40;;;0.70;;
14100;SDS011;7127;49.372;8.166;2023-03-24T13:44:22;1.20;;;0.80;;
14100;SDS011;7127;49.372;8.166;2023-03-24T13:46:58;2.47;;;0.87;;
14100;SDS011;7127;49.372;8.166;2023-03-24T13:49:37;0.93;;;0.67;;
14100;SDS011;7127;49.372;8.166;2023-03-24T13:52:05;4.27;;;1.00;;
14100;SDS011;7127;49.372;8.166;2023-03-24T13:54:47;2.13;;;0.80;;
14100;SDS011;7127;49.372;8.166;2023-03-24T13:57:18;1.20;;;0.70;;
14100;SDS011;7127;49.372;8.166;2023-03-24T13:59:57;1.80;;;0.80;;
14100;SDS011;7127;49.372;8.166;2023-03-24T14:02:42;1.93;;;0.80;;
14100;SDS011;7127;49.372;8.166;2023-03-24T14:05:30;0.60;;;0.53;;
14100;SDS011;7127;49.372;8.166;2023-03-24T14:08:09;0.80;;;0.60;;
14100;SDS011;7127;49.372;8.166;2023-03-24T14:10:42;1.67;;;0.57;;
14100;SDS011;7127;49.372;8.166;2023-03-24T14:16:33;1.13;;;0.60;;
14100;SDS011;7127;49.372;8.166;2023-03-24T14:19:07;1.37;;;0.87;;
14100;SDS011;7127;49.372;8.166;2023-03-24T14:21:43;0.70;;;0.60;;
14100;SDS011;7127;49.372;8.166;2023-03-24T14:24:18;1.47;;;0.70;;
14100;SDS011;7127;49.372;8.166;2023-03-24T14:26:50;2.23;;;0.90;;
14100;SDS011;7127;49.372;8.166;2023-03-24T14:29:36;2.03;;;0.90;;
14100;SDS011;7127;49.372;8.166;2023-03-24T14:32:05;1.60;;;0.83;;
14100;SDS011;7127;49.372;8.166;2023-03-24T14:34:32;2.33;;;1.23;;
14100;SDS011;7127;49.372;8.166;2023-03-24T14:37:02;0.90;;;0.70;;
14100;SDS011;7127;49.372;8.166;2023-03-24T14:39:34;0.53;;;0.50;;
14100;SDS011;7127;49.372;8.166;2023-03-24T14:52:59;1.13;;;0.60;;
14100;SDS011;7127;49.372;8.166;2023-03-24T14:55:28;2.13;;;0.97;;
14100;SDS011;7127;49.372;8.166;2023-03-24T14:57:56;2.80;;;0.93;;
14100;SDS011;7127;49.372;8.166;2023-03-24T15:00:30;1.97;;;0.83;;
14100;SDS011;7127;49.372;8.166;2023-03-24T15:03:01;1.37;;;0.60;;
14100;SDS011;7127;49.372;8.166;2023-03-24T15:05:41;1.20;;;0.83;;
14100;SDS011;7127;49.372;8.166;2023-03-24T15:08:11;1.20;;;0.80;;
14100;SDS011;7127;49.372;8.166;2023-03-24T15:10:43;2.20;;;0.63;;
14100;SDS011;7127;49.372;8.166;2023-03-24T15:13:24;0.83;;;0.50;;
14100;SDS011;7127;49.372;8.166;2023-03-24T15:15:58;2.07;;;0.80;;
14100;SDS011;7127;49.372;8.166;2023-03-24T15:18:26;0.90;;;0.53;;
14100;SDS011;7127;49.372;8.166;2023-03-24T15:20:53;0.60;;;0.53;;
14100;SDS011;7127;49.372;8.166;2023-03-24T15:23:23;2.20;;;0.90;;
14100;SDS011;7127;49.372;8.166;2023-03-24T15:25:52;2.10;;;0.73;;
14100;SDS011;7127;49.372;8.166;2023-03-24T15:28:20;1.57;;;0.70;;
14100;SDS011;7127;49.372;8.166;2023-03-24T15:30:50;1.30;;;0.77;;
14100;SDS011;7127;49.372;8.166;2023-03-24T15:33:18;1.10;;;0.80;;
14100;SDS011;7127;49.372;8.166;2023-03-24T15:35:46;1.17;;;0.60;;
14100;SDS011;7127;49.372;8.166;2023-03-24T15:38:26;1.03;;;0.80;;
14100;SDS011;7127;49.372;8.166;2023-03-24T15:40:58;1.27;;;0.60;;
14100;SDS011;7127;49.372;8.166;2023-03-24T15:43:31;1.17;;;0.60;;
14100;SDS011;7127;49.372;8.166;2023-03-24T15:45:59;1.00;;;0.60;;
14100;SDS011;7127;49.372;8.166;2023-03-24T15:48:34;0.93;;;0.50;;
14100;SDS011;7127;49.372;8.166;2023-03-24T15:51:03;1.43;;;0.80;;
14100;SDS011;7127;49.372;8.166;2023-03-24T15:53:39;1.77;;;0.90;;
14100;SDS011;7127;49.372;8.166;2023-03-24T15:56:15;0.90;;;0.70;;
14100;SDS011;7127;49.372;8.166;2023-03-24T16:24:40;0.60;;;0.50;;
14100;SDS011;7127;49.372;8.166;2023-03-24T16:32:29;0.70;;;0.50;;
14100;SDS011;7127;49.372;8.166;2023-03-24T16:37:32;0.87;;;0.60;;
14100;SDS011;7127;49.372;8.166;2023-03-24T16:40:02;1.73;;;0.70;;
14100;SDS011;7127;49.372;8.166;2023-03-24T16:42:39;1.80;;;0.57;;
14100;SDS011;7127;49.372;8.166;2023-03-24T16:45:08;0.60;;;0.50;;
14100;SDS011;7127;49.372;8.166;2023-03-24T16:47:37;1.30;;;0.70;;
14100;SDS011;7127;49.372;8.166;2023-03-24T16:50:14;1.47;;;0.70;;
14100;SDS011;7127;49.372;8.166;2023-03-24T16:52:52;1.00;;;0.70;;
14100;SDS011;7127;49.372;8.166;2023-03-24T16:55:22;1.77;;;0.80;;
14100;SDS011;7127;49.372;8.166;2023-03-24T16:57:50;1.10;;;0.60;;
14100;SDS011;7127;49.372;8.166;2023-03-24T17:00:17;0.97;;;0.60;;
14100;SDS011;7127;49.372;8.166;2023-03-24T17:02:44;0.97;;;0.50;;
14100;SDS011;7127;49.372;8.166;2023-03-24T17:05:18;1.07;;;0.60;;
14100;SDS011;7127;49.372;8.166;2023-03-24T17:07:47;1.93;;;0.83;;
14100;SDS011;7127;49.372;8.166;2023-03-24T17:10:14;0.70;;;0.60;;
14100;SDS011;7127;49.372;8.166;2023-03-24T17:12:43;0.90;;;0.60;;
14100;SDS011;7127;49.372;8.166;2023-03-24T17:15:18;1.43;;;0.70;;
14100;SDS011;7127;49.372;8.166;2023-03-24T17:17:47;1.57;;;0.80;;
14100;SDS011;7127;49.372;8.166;2023-03-24T17:20:14;1.40;;;0.60;;
14100;SDS011;7127;49.372;8.166;2023-03-24T17:22:42;2.93;;;1.03;;
14100;SDS011;7127;49.372;8.166;2023-03-24T17:25:10;1.37;;;0.87;;
14100;SDS011;7127;49.372;8.166;2023-03-24T17:27:39;1.37;;;0.70;;
14100;SDS011;7127;49.372;8.166;2023-03-24T17:30:10;1.90;;;0.70;;
14100;SDS011;7127;49.372;8.166;2023-03-24T17:32:41;2.53;;;1.00;;
14100;SDS011;7127;49.372;8.166;2023-03-24T17:35:09;1.00;;;0.60;;
14100;SDS011;7127;49.372;8.166;2023-03-24T17:37:37;1.73;;;0.80;;
14100;SDS011;7127;49.372;8.166;2023-03-24T17:40:04;1.10;;;0.67;;
14100;SDS011;7127;49.372;8.166;2023-03-24T17:42:34;2.17;;;0.90;;
14100;SDS011;7127;49.372;8.166;2023-03-24T17:45:03;1.93;;;1.10;;
14100;SDS011;7127;49.372;8.166;2023-03-24T17:47:33;1.37;;;0.80;;
14100;SDS011;7127;49.372;8.166;2023-03-24T17:50:00;0.70;;;0.60;;
14100;SDS011;7127;49.372;8.166;2023-03-24T17:52:33;1.03;;;0.67;;
14100;SDS011;7127;49.372;8.166;2023-03-24T17:55:00;1.47;;;0.70;;
14100;SDS011;7127;49.372;8.166;2023-03-24T17:57:28;1.20;;;0.80;;
14100;SDS011;7127;49.372;8.166;2023-03-24T17:59:55;1.83;;;0.80;;
14100;SDS011;7127;49.372;8.166;2023-03-24T18:02:22;1.33;;;0.70;;
14100;SDS011;7127;49.372;8.166;2023-03-24T18:04:50;1.20;;;0.60;;
14100;SDS011;7127;49.372;8.166;2023-03-24T18:07:18;1.00;;;0.60;;
14100;SDS011;7127;49.372;8.166;2023-03-24T18:09:47;1.27;;;0.90;;
14100;SDS011;7127;49.372;8.166;2023-03-24T18:12:14;2.00;;;0.93;;
14100;SDS011;7127;49.372;8.166;2023-03-24T18:14:41;0.87;;;0.60;;
14100;SDS011;7127;49.372;8.166;2023-03-24T18:17:08;0.97;;;0.63;;